• Join FlightAware (Why Join?)
  • Login
  • US Flag 
07:00PM EDT


 

Airport Tracker/Info


-or-


 

Live Flight TrackerFlight Track Log ✈ CDG4711 ✈ 02-Dec-2013 ✈ ZSQD / TAO - ZSWY / WUS

Flight Track Log - Related Links

Times and Time Zones

All times are in EST time to prevent confusion due to time zone crossing. See the CDG4711 flight status page for this flight to view local times or setup timezone preferences in your user account.

Time Position Orientation Groundspeed Altitude Reporting Facility
EST Latitude Longitude Course Direction KTS MPH feet Rate Location/Type
06:30PM 35.6095 120.1751 194° South  Level Estimated
06:31PM 35.5289 120.1508 194° South  Level Estimated
06:32PM 35.4484 120.1267 194° South  Level Estimated
06:33PM 35.3678 120.1025 194° South  Level Estimated
06:34PM 35.2872 120.0785 194° South  Level Estimated
06:35PM 35.2067 120.0544 194° South  Level Estimated
06:36PM 35.1261 120.0304 194° South  Level Estimated
06:37PM 35.0455 120.0065 194° South  Level Estimated
06:38PM 34.9649 119.9826 194° South  Level Estimated
06:39PM 34.8843 119.9588 194° South  Level Estimated
06:40PM 34.8037 119.9350 194° South  Level Estimated
06:41PM 34.7231 119.9112 194° South  Level Estimated
06:42PM 34.6425 119.8875 194° South  Level Estimated
06:43PM 34.5619 119.8639 194° South  Level Estimated
06:44PM 34.4813 119.8402 194° South  Level Estimated
06:45PM 34.4007 119.8167 194° South  Level Estimated
06:46PM 34.3201 119.7932 194° South  Level Estimated
06:47PM 34.2394 119.7697 194° South  Level Estimated
06:48PM 34.1588 119.7462 194° South  Level Estimated
06:49PM 34.0782 119.7229 194° South  Level Estimated
06:50PM 33.9975 119.6995 193° South  Level Estimated
06:51PM 33.9169 119.6762 193° South  Level Estimated
06:52PM 33.8363 119.6530 193° South  Level Estimated
06:53PM 33.7556 119.6298 193° South  Level Estimated
06:54PM 33.6749 119.6066 193° South  Level Estimated
06:55PM 33.5943 119.5835 193° South  Level Estimated
06:56PM 33.5136 119.5604 193° South  Level Estimated
06:57PM 33.4329 119.5374 193° South  Level Estimated
06:58PM 33.3523 119.5144 193° South  Level Estimated
06:59PM 33.2716 119.4914 193° South  Level Estimated
07:00PM 33.1909 119.4685 193° South  Level Estimated
07:01PM 33.1102 119.4456 193° South  Level Estimated
07:02PM 33.0295 119.4228 193° South  Level Estimated
07:03PM 32.9488 119.4000 193° South  Level Estimated
07:04PM 32.8681 119.3773 193° South  Level Estimated
07:05PM 32.7874 119.3546 193° South  Level Estimated
07:06PM 32.7067 119.3319 193° South  Level Estimated
07:07PM 32.6260 119.3093 193° South  Level Estimated
07:08PM 32.5453 119.2867 193° South  Level Estimated
07:09PM 32.4646 119.2642 193° South  Level Estimated
07:10PM 32.3839 119.2417 193° South  Level Estimated
07:11PM 32.3031 119.2192 193° South  Level Estimated
07:12PM 32.2224 119.1968 193° South  Level Estimated
07:13PM 32.1417 119.1745 193° South  Level Estimated
07:14PM 32.0609 119.1521 193° South  Level Estimated
07:15PM 31.9802 119.1298 193° South  Level Estimated
07:16PM 31.8994 119.1076 193° South  Level Estimated
07:17PM 31.8187 119.0853 193° South  Level Estimated
07:18PM 31.7379 119.0631 193° South  Level Estimated
07:19PM 31.6572 119.0410 193° South  Level Estimated
07:20PM 31.5764 119.0189 193° South  Level Estimated
07:21PM 31.4956 118.9968 193° South  Level Estimated
07:22PM 31.4149 118.9748 193° South  Level Estimated
07:23PM 31.3341 118.9528 193° South  Level Estimated
07:24PM 31.2533 118.9309 193° South  Level Estimated
07:25PM 31.1725 118.9090 193° South  Level Estimated
07:26PM 31.0917 118.8871 193° South  Level Estimated
07:27PM 31.0109 118.8652 193° South  Level Estimated
07:28PM 30.9301 118.8435 193° South  Level Estimated
07:29PM 30.8493 118.8217 193° South  Level Estimated
07:30PM 30.7686 118.8000 193° South  Level Estimated
07:31PM 30.6877 118.7783 193° South  Level Estimated
07:32PM 30.6069 118.7566 193° South  Level Estimated
07:33PM 30.5261 118.7350 193° South  Level Estimated
07:34PM 30.4453 118.7134 193° South  Level Estimated
07:35PM 30.3645 118.6919 193° South  Level Estimated
07:36PM 30.2837 118.6704 193° South  Level Estimated
07:37PM 30.2029 118.6489 193° South  Level Estimated
07:38PM 30.1220 118.6274 193° South  Level Estimated
07:39PM 30.0412 118.6060 193° South  Level Estimated
07:40PM 29.9604 118.5847 193° South  Level Estimated
07:41PM 29.8795 118.5633 193° South  Level Estimated
07:42PM 29.7987 118.5420 193° South  Level Estimated
07:43PM 29.7178 118.5208 193° South  Level Estimated
07:44PM 29.6370 118.4995 193° South  Level Estimated
07:45PM 29.5561 118.4783 193° South  Level Estimated
07:46PM 29.4753 118.4572 193° South  Level Estimated
07:47PM 29.3944 118.4360 193° South  Level Estimated
07:48PM 29.3135 118.4149 193° South  Level Estimated
07:49PM 29.2327 118.3939 193° South  Level Estimated
07:50PM 29.1518 118.3728 193° South  Level Estimated
07:51PM 29.0709 118.3518 193° South  Level Estimated
07:52PM 28.9900 118.3309 193° South  Level Estimated
07:53PM 28.9092 118.3100 193° South  Level Estimated
07:54PM 28.8283 118.2890 193° South  Level Estimated
07:55PM 28.7474 118.2682 193° South  Level Estimated
07:56PM 28.6665 118.2473 193° South  Level Estimated
07:57PM 28.5856 118.2265 193° South  Level Estimated
07:58PM 28.5047 118.2058 193° South  Level Estimated
07:59PM 28.4238 118.1850 193° South  Level Estimated
08:00PM 28.3429 118.1643 193° South  Level Estimated
08:01PM 28.2620 118.1436 193° South  Level Estimated
08:02PM 28.1811 118.1230 193° South  Level Estimated
08:03PM 28.1002 118.1024 193° South  Level Estimated
08:04PM 28.0193 118.0818 193° South  Level Estimated
08:05PM 27.9384 118.0613 193° South  Level Estimated
08:06PM 27.8575 118.0407 193° South  Level Estimated
08:07PM 27.7765 118.0202 193° South  Level Estimated
08:08PM 27.7019 118.0014 193° South  Level Estimated
08:09PM 27.7019 118.0014 348° North  Level Estimated
08:10PM 27.7019 118.0014 348° North  Level Estimated
08:11PM 27.7019 118.0014 348° North  Level Estimated
08:12PM 27.7019 118.0014 348° North  Level Estimated
08:13PM 27.7019 118.0014 348° North  Level Estimated
08:14PM 27.7019 118.0014 348° North  Level Estimated
08:15PM 27.7019 118.0014 348° North  Level Estimated
08:16PM 27.7019 118.0014 348° North  Level Estimated
08:17PM 27.7019 118.0014 348° North  Level Estimated
08:18PM 27.7019 118.0014 348° North  Level Estimated
08:19PM 27.7019 118.0014 348° North  Level Estimated
08:20PM 27.7019 118.0014 348° North  Level Estimated
08:21PM 27.7019 118.0014 348° North  Level Estimated
08:22PM 27.7019 118.0014 348° North  Level Estimated
08:23PM 27.7019 118.0014 348° North  Level Estimated